sensor_id;sensor_type;location;lat;lon;timestamp;P1;durP1;ratioP1;P2;durP2;ratioP2
71125;SDS011;58785;55.566;38.058;2022-11-15T00:01:45;1.57;;;0.20;;
71125;SDS011;58785;55.566;38.058;2022-11-15T00:04:10;1.67;;;0.20;;
71125;SDS011;58785;55.566;38.058;2022-11-15T00:06:36;1.63;;;0.30;;
71125;SDS011;58785;55.566;38.058;2022-11-15T00:09:03;1.45;;;0.20;;
71125;SDS011;58785;55.566;38.058;2022-11-15T00:11:28;1.70;;;0.20;;
71125;SDS011;58785;55.566;38.058;2022-11-15T00:13:55;1.90;;;0.20;;
71125;SDS011;58785;55.566;38.058;2022-11-15T00:16:21;1.73;;;0.20;;
71125;SDS011;58785;55.566;38.058;2022-11-15T00:18:47;1.85;;;0.10;;
71125;SDS011;58785;55.566;38.058;2022-11-15T00:21:13;1.97;;;0.20;;
71125;SDS011;58785;55.566;38.058;2022-11-15T00:23:39;6.47;;;0.50;;
71125;SDS011;58785;55.566;38.058;2022-11-15T00:26:04;3.03;;;0.20;;
71125;SDS011;58785;55.566;38.058;2022-11-15T00:28:31;1.40;;;0.10;;
71125;SDS011;58785;55.566;38.058;2022-11-15T00:31:00;3.05;;;0.25;;
71125;SDS011;58785;55.566;38.058;2022-11-15T00:33:29;1.83;;;0.10;;
71125;SDS011;58785;55.566;38.058;2022-11-15T00:35:59;3.00;;;0.30;;
71125;SDS011;58785;55.566;38.058;2022-11-15T00:38:30;2.45;;;0.30;;
71125;SDS011;58785;55.566;38.058;2022-11-15T00:40:56;2.38;;;0.32;;
71125;SDS011;58785;55.566;38.058;2022-11-15T00:43:22;1.87;;;0.20;;
71125;SDS011;58785;55.566;38.058;2022-11-15T00:45:47;2.65;;;0.20;;
71125;SDS011;58785;55.566;38.058;2022-11-15T00:48:13;3.67;;;0.10;;
71125;SDS011;58785;55.566;38.058;2022-11-15T00:50:39;1.90;;;0.30;;
71125;SDS011;58785;55.566;38.058;2022-11-15T00:53:05;1.58;;;0.20;;
71125;SDS011;58785;55.566;38.058;2022-11-15T00:55:30;3.40;;;0.33;;
71125;SDS011;58785;55.566;38.058;2022-11-15T00:57:56;2.38;;;0.28;;
71125;SDS011;58785;55.566;38.058;2022-11-15T01:00:21;3.27;;;0.30;;
71125;SDS011;58785;55.566;38.058;2022-11-15T01:02:47;6.30;;;0.40;;
71125;SDS011;58785;55.566;38.058;2022-11-15T01:05:13;2.50;;;0.33;;
71125;SDS011;58785;55.566;38.058;2022-11-15T01:07:38;2.83;;;0.20;;
71125;SDS011;58785;55.566;38.058;2022-11-15T01:10:05;4.80;;;0.40;;
71125;SDS011;58785;55.566;38.058;2022-11-15T01:12:31;3.10;;;0.35;;
71125;SDS011;58785;55.566;38.058;2022-11-15T01:14:57;2.10;;;0.20;;
71125;SDS011;58785;55.566;38.058;2022-11-15T01:17:22;5.60;;;0.30;;
71125;SDS011;58785;55.566;38.058;2022-11-15T01:19:49;3.60;;;0.50;;
71125;SDS011;58785;55.566;38.058;2022-11-15T01:22:14;2.67;;;0.30;;
71125;SDS011;58785;55.566;38.058;2022-11-15T01:24:40;2.23;;;0.50;;
71125;SDS011;58785;55.566;38.058;2022-11-15T01:27:05;6.20;;;0.40;;
71125;SDS011;58785;55.566;38.058;2022-11-15T01:29:31;5.25;;;0.70;;
71125;SDS011;58785;55.566;38.058;2022-11-15T01:31:57;5.37;;;0.70;;
71125;SDS011;58785;55.566;38.058;2022-11-15T01:34:22;3.05;;;0.32;;
71125;SDS011;58785;55.566;38.058;2022-11-15T01:36:48;4.77;;;0.60;;
71125;SDS011;58785;55.566;38.058;2022-11-15T01:39:13;2.57;;;0.43;;
71125;SDS011;58785;55.566;38.058;2022-11-15T01:41:40;5.43;;;0.87;;
71125;SDS011;58785;55.566;38.058;2022-11-15T01:46:56;4.60;;;0.80;;
71125;SDS011;58785;55.566;38.058;2022-11-15T01:49:24;4.63;;;0.37;;
71125;SDS011;58785;55.566;38.058;2022-11-15T01:51:52;6.18;;;0.68;;
71125;SDS011;58785;55.566;38.058;2022-11-15T01:54:19;3.75;;;0.50;;
71125;SDS011;58785;55.566;38.058;2022-11-15T01:56:53;3.15;;;0.22;;
71125;SDS011;58785;55.566;38.058;2022-11-15T01:59:25;2.63;;;0.45;;
71125;SDS011;58785;55.566;38.058;2022-11-15T02:01:51;7.10;;;0.80;;
71125;SDS011;58785;55.566;38.058;2022-11-15T02:04:20;4.32;;;0.60;;
71125;SDS011;58785;55.566;38.058;2022-11-15T02:06:50;3.80;;;0.90;;
71125;SDS011;58785;55.566;38.058;2022-11-15T02:09:16;5.17;;;0.70;;
71125;SDS011;58785;55.566;38.058;2022-11-15T02:11:42;3.53;;;0.60;;
71125;SDS011;58785;55.566;38.058;2022-11-15T02:14:09;5.07;;;0.60;;
71125;SDS011;58785;55.566;38.058;2022-11-15T02:30:42;5.55;;;0.65;;
71125;SDS011;58785;55.566;38.058;2022-11-15T02:33:22;4.00;;;0.80;;
71125;SDS011;58785;55.566;38.058;2022-11-15T02:36:43;4.28;;;0.77;;
71125;SDS011;58785;55.566;38.058;2022-11-15T02:39:25;6.47;;;1.45;;
71125;SDS011;58785;55.566;38.058;2022-11-15T02:41:56;2.90;;;0.40;;
71125;SDS011;58785;55.566;38.058;2022-11-15T02:44:41;5.50;;;0.68;;
71125;SDS011;58785;55.566;38.058;2022-11-15T02:47:12;6.43;;;0.83;;
71125;SDS011;58785;55.566;38.058;2022-11-15T02:49:51;6.93;;;0.60;;
71125;SDS011;58785;55.566;38.058;2022-11-15T02:52:20;10.73;;;0.95;;
71125;SDS011;58785;55.566;38.058;2022-11-15T02:54:56;6.18;;;1.02;;
71125;SDS011;58785;55.566;38.058;2022-11-15T03:05:43;6.28;;;1.15;;
71125;SDS011;58785;55.566;38.058;2022-11-15T03:13:58;8.37;;;1.20;;
71125;SDS011;58785;55.566;38.058;2022-11-15T03:19:06;13.47;;;1.10;;
71125;SDS011;58785;55.566;38.058;2022-11-15T03:21:39;3.57;;;0.80;;
71125;SDS011;58785;55.566;38.058;2022-11-15T03:24:06;5.05;;;1.00;;
71125;SDS011;58785;55.566;38.058;2022-11-15T03:26:34;7.82;;;1.33;;
71125;SDS011;58785;55.566;38.058;2022-11-15T03:29:04;6.97;;;1.00;;
71125;SDS011;58785;55.566;38.058;2022-11-15T03:31:37;6.78;;;0.50;;
71125;SDS011;58785;55.566;38.058;2022-11-15T03:34:15;5.47;;;0.70;;
71125;SDS011;58785;55.566;38.058;2022-11-15T03:36:47;6.50;;;1.00;;
71125;SDS011;58785;55.566;38.058;2022-11-15T03:39:16;10.13;;;1.00;;
71125;SDS011;58785;55.566;38.058;2022-11-15T03:42:02;6.97;;;0.90;;
71125;SDS011;58785;55.566;38.058;2022-11-15T03:47:49;6.00;;;0.97;;
71125;SDS011;58785;55.566;38.058;2022-11-15T03:50:19;5.05;;;0.90;;
71125;SDS011;58785;55.566;38.058;2022-11-15T03:52:47;6.57;;;1.08;;
71125;SDS011;58785;55.566;38.058;2022-11-15T03:55:18;8.70;;;1.80;;
71125;SDS011;58785;55.566;38.058;2022-11-15T03:57:46;8.80;;;1.45;;
71125;SDS011;58785;55.566;38.058;2022-11-15T04:00:14;9.00;;;1.30;;
71125;SDS011;58785;55.566;38.058;2022-11-15T04:02:40;12.55;;;2.03;;
71125;SDS011;58785;55.566;38.058;2022-11-15T04:05:05;5.57;;;1.17;;
71125;SDS011;58785;55.566;38.058;2022-11-15T04:07:31;8.87;;;1.10;;
71125;SDS011;58785;55.566;38.058;2022-11-15T04:09:57;8.82;;;1.33;;
71125;SDS011;58785;55.566;38.058;2022-11-15T04:12:33;6.00;;;1.00;;
71125;SDS011;58785;55.566;38.058;2022-11-15T04:15:01;20.00;;;1.55;;
71125;SDS011;58785;55.566;38.058;2022-11-15T04:20:08;6.57;;;1.20;;
71125;SDS011;58785;55.566;38.058;2022-11-15T04:22:53;6.88;;;0.90;;
71125;SDS011;58785;55.566;38.058;2022-11-15T04:25:38;6.00;;;1.03;;
71125;SDS011;58785;55.566;38.058;2022-11-15T04:28:03;9.13;;;1.05;;
71125;SDS011;58785;55.566;38.058;2022-11-15T04:30:29;10.27;;;0.70;;
71125;SDS011;58785;55.566;38.058;2022-11-15T04:32:54;4.32;;;0.60;;
71125;SDS011;58785;55.566;38.058;2022-11-15T04:35:20;5.50;;;0.87;;
71125;SDS011;58785;55.566;38.058;2022-11-15T04:37:45;2.90;;;0.43;;
71125;SDS011;58785;55.566;38.058;2022-11-15T04:40:11;5.20;;;0.90;;
71125;SDS011;58785;55.566;38.058;2022-11-15T04:42:37;5.47;;;1.03;;
71125;SDS011;58785;55.566;38.058;2022-11-15T04:45:07;4.95;;;0.80;;
71125;SDS011;58785;55.566;38.058;2022-11-15T04:47:32;6.13;;;0.70;;
71125;SDS011;58785;55.566;38.058;2022-11-15T04:49:58;7.03;;;0.80;;
71125;SDS011;58785;55.566;38.058;2022-11-15T04:52:24;5.93;;;1.10;;
71125;SDS011;58785;55.566;38.058;2022-11-15T04:54:49;6.20;;;0.57;;
71125;SDS011;58785;55.566;38.058;2022-11-15T04:57:15;9.77;;;1.00;;
71125;SDS011;58785;55.566;38.058;2022-11-15T04:59:40;6.70;;;1.08;;
71125;SDS011;58785;55.566;38.058;2022-11-15T05:02:06;3.03;;;0.70;;
71125;SDS011;58785;55.566;38.058;2022-11-15T05:04:31;7.50;;;1.00;;
71125;SDS011;58785;55.566;38.058;2022-11-15T05:06:57;6.47;;;0.90;;
71125;SDS011;58785;55.566;38.058;2022-11-15T05:09:22;5.80;;;0.67;;
71125;SDS011;58785;55.566;38.058;2022-11-15T05:11:48;3.30;;;0.75;;
71125;SDS011;58785;55.566;38.058;2022-11-15T05:14:13;4.30;;;0.80;;
71125;SDS011;58785;55.566;38.058;2022-11-15T05:16:40;9.30;;;0.73;;
71125;SDS011;58785;55.566;38.058;2022-11-15T05:19:06;9.18;;;0.90;;
71125;SDS011;58785;55.566;38.058;2022-11-15T05:21:31;5.10;;;0.50;;
71125;SDS011;58785;55.566;38.058;2022-11-15T05:23:57;8.02;;;0.85;;
71125;SDS011;58785;55.566;38.058;2022-11-15T05:26:23;4.65;;;0.63;;
71125;SDS011;58785;55.566;38.058;2022-11-15T05:28:53;6.50;;;0.87;;
71125;SDS011;58785;55.566;38.058;2022-11-15T05:31:22;5.35;;;0.93;;
71125;SDS011;58785;55.566;38.058;2022-11-15T05:33:49;5.35;;;0.70;;
71125;SDS011;58785;55.566;38.058;2022-11-15T05:39:05;5.18;;;1.08;;
71125;SDS011;58785;55.566;38.058;2022-11-15T05:41:32;4.50;;;0.47;;
71125;SDS011;58785;55.566;38.058;2022-11-15T05:44:01;4.68;;;0.82;;
71125;SDS011;58785;55.566;38.058;2022-11-15T05:46:30;3.50;;;0.70;;
71125;SDS011;58785;55.566;38.058;2022-11-15T05:48:55;11.97;;;1.23;;
71125;SDS011;58785;55.566;38.058;2022-11-15T05:51:22;4.95;;;0.77;;
71125;SDS011;58785;55.566;38.058;2022-11-15T05:53:48;3.88;;;0.50;;
71125;SDS011;58785;55.566;38.058;2022-11-15T05:56:16;4.93;;;0.80;;
71125;SDS011;58785;55.566;38.058;2022-11-15T05:58:41;4.65;;;0.90;;
71125;SDS011;58785;55.566;38.058;2022-11-15T06:01:08;4.82;;;1.17;;
71125;SDS011;58785;55.566;38.058;2022-11-15T06:03:34;9.13;;;0.80;;
71125;SDS011;58785;55.566;38.058;2022-11-15T06:05:59;8.93;;;0.70;;
71125;SDS011;58785;55.566;38.058;2022-11-15T06:08:25;5.35;;;0.80;;
71125;SDS011;58785;55.566;38.058;2022-11-15T06:10:50;8.17;;;0.97;;
71125;SDS011;58785;55.566;38.058;2022-11-15T06:13:16;4.10;;;1.00;;
71125;SDS011;58785;55.566;38.058;2022-11-15T06:15:41;4.50;;;0.60;;
71125;SDS011;58785;55.566;38.058;2022-11-15T06:18:07;5.28;;;0.90;;
71125;SDS011;58785;55.566;38.058;2022-11-15T06:20:32;6.83;;;1.20;;
71125;SDS011;58785;55.566;38.058;2022-11-15T06:22:59;5.77;;;0.87;;
71125;SDS011;58785;55.566;38.058;2022-11-15T06:25:26;4.40;;;0.73;;
71125;SDS011;58785;55.566;38.058;2022-11-15T06:27:53;4.45;;;0.60;;
71125;SDS011;58785;55.566;38.058;2022-11-15T06:30:20;4.18;;;0.50;;
71125;SDS011;58785;55.566;38.058;2022-11-15T06:32:46;9.45;;;1.27;;
71125;SDS011;58785;55.566;38.058;2022-11-15T06:35:12;6.70;;;1.10;;
71125;SDS011;58785;55.566;38.058;2022-11-15T06:37:38;8.13;;;1.92;;
71125;SDS011;58785;55.566;38.058;2022-11-15T06:40:04;12.00;;;1.50;;
71125;SDS011;58785;55.566;38.058;2022-11-15T06:42:30;7.53;;;1.67;;
71125;SDS011;58785;55.566;38.058;2022-11-15T06:44:56;6.40;;;0.75;;
71125;SDS011;58785;55.566;38.058;2022-11-15T06:47:21;5.13;;;0.60;;
71125;SDS011;58785;55.566;38.058;2022-11-15T06:49:47;8.50;;;0.77;;
71125;SDS011;58785;55.566;38.058;2022-11-15T06:52:12;6.57;;;0.97;;
71125;SDS011;58785;55.566;38.058;2022-11-15T06:54:38;4.13;;;0.70;;
71125;SDS011;58785;55.566;38.058;2022-11-15T06:57:04;5.05;;;1.33;;
71125;SDS011;58785;55.566;38.058;2022-11-15T06:59:29;5.10;;;1.43;;
71125;SDS011;58785;55.566;38.058;2022-11-15T07:01:55;12.13;;;1.73;;
71125;SDS011;58785;55.566;38.058;2022-11-15T07:04:21;7.37;;;1.83;;
71125;SDS011;58785;55.566;38.058;2022-11-15T07:06:46;8.02;;;1.77;;
71125;SDS011;58785;55.566;38.058;2022-11-15T07:09:13;6.10;;;1.50;;
71125;SDS011;58785;55.566;38.058;2022-11-15T07:11:39;6.95;;;1.30;;
71125;SDS011;58785;55.566;38.058;2022-11-15T07:14:04;5.15;;;1.20;;
71125;SDS011;58785;55.566;38.058;2022-11-15T07:16:30;4.07;;;1.00;;
71125;SDS011;58785;55.566;38.058;2022-11-15T07:18:56;19.53;;;5.20;;
71125;SDS011;58785;55.566;38.058;2022-11-15T07:21:21;9.68;;;1.77;;
71125;SDS011;58785;55.566;38.058;2022-11-15T07:23:47;6.40;;;1.33;;
71125;SDS011;58785;55.566;38.058;2022-11-15T07:26:12;7.22;;;1.63;;
71125;SDS011;58785;55.566;38.058;2022-11-15T07:28:38;8.17;;;1.50;;
71125;SDS011;58785;55.566;38.058;2022-11-15T07:31:04;6.33;;;1.00;;
71125;SDS011;58785;55.566;38.058;2022-11-15T07:33:31;10.52;;;1.67;;
71125;SDS011;58785;55.566;38.058;2022-11-15T07:36:00;5.20;;;1.02;;
71125;SDS011;58785;55.566;38.058;2022-11-15T07:38:27;4.00;;;0.70;;
71125;SDS011;58785;55.566;38.058;2022-11-15T07:40:57;4.10;;;0.63;;
71125;SDS011;58785;55.566;38.058;2022-11-15T07:43:23;3.57;;;0.80;;
71125;SDS011;58785;55.566;38.058;2022-11-15T07:45:49;4.53;;;1.08;;
71125;SDS011;58785;55.566;38.058;2022-11-15T07:48:15;6.57;;;1.10;;
71125;SDS011;58785;55.566;38.058;2022-11-15T07:50:40;4.77;;;0.83;;
71125;SDS011;58785;55.566;38.058;2022-11-15T07:53:07;4.05;;;1.02;;
71125;SDS011;58785;55.566;38.058;2022-11-15T07:55:34;5.57;;;1.10;;
71125;SDS011;58785;55.566;38.058;2022-11-15T07:58:00;4.50;;;0.95;;
71125;SDS011;58785;55.566;38.058;2022-11-15T08:00:27;6.07;;;1.07;;
71125;SDS011;58785;55.566;38.058;2022-11-15T08:02:53;4.57;;;1.02;;
71125;SDS011;58785;55.566;38.058;2022-11-15T08:05:27;6.90;;;0.90;;
71125;SDS011;58785;55.566;38.058;2022-11-15T08:07:54;6.23;;;0.87;;
71125;SDS011;58785;55.566;38.058;2022-11-15T08:10:20;4.97;;;0.90;;
71125;SDS011;58785;55.566;38.058;2022-11-15T08:12:46;3.50;;;0.63;;
71125;SDS011;58785;55.566;38.058;2022-11-15T08:15:11;4.57;;;1.10;;
71125;SDS011;58785;55.566;38.058;2022-11-15T08:17:37;4.10;;;1.00;;
71125;SDS011;58785;55.566;38.058;2022-11-15T08:20:02;6.17;;;1.03;;
71125;SDS011;58785;55.566;38.058;2022-11-15T08:22:29;4.70;;;0.98;;
71125;SDS011;58785;55.566;38.058;2022-11-15T08:24:55;5.47;;;1.03;;
71125;SDS011;58785;55.566;38.058;2022-11-15T08:27:20;4.00;;;0.88;;
71125;SDS011;58785;55.566;38.058;2022-11-15T08:29:47;5.27;;;0.83;;
71125;SDS011;58785;55.566;38.058;2022-11-15T08:32:14;5.25;;;1.00;;
71125;SDS011;58785;55.566;38.058;2022-11-15T08:34:40;3.33;;;0.50;;
71125;SDS011;58785;55.566;38.058;2022-11-15T08:37:05;5.37;;;0.63;;
71125;SDS011;58785;55.566;38.058;2022-11-15T08:39:33;4.60;;;0.60;;
71125;SDS011;58785;55.566;38.058;2022-11-15T08:41:59;5.35;;;0.80;;
71125;SDS011;58785;55.566;38.058;2022-11-15T08:44:24;3.97;;;0.63;;
71125;SDS011;58785;55.566;38.058;2022-11-15T08:46:50;3.72;;;0.60;;
71125;SDS011;58785;55.566;38.058;2022-11-15T08:49:16;3.30;;;0.50;;
71125;SDS011;58785;55.566;38.058;2022-11-15T08:51:41;4.25;;;0.70;;
71125;SDS011;58785;55.566;38.058;2022-11-15T08:54:08;5.40;;;0.90;;
71125;SDS011;58785;55.566;38.058;2022-11-15T08:56:34;6.78;;;0.60;;
71125;SDS011;58785;55.566;38.058;2022-11-15T08:58:59;4.87;;;1.10;;
71125;SDS011;58785;55.566;38.058;2022-11-15T09:01:25;5.07;;;1.25;;
71125;SDS011;58785;55.566;38.058;2022-11-15T09:03:50;4.17;;;0.80;;
71125;SDS011;58785;55.566;38.058;2022-11-15T09:06:16;12.90;;;1.40;;
71125;SDS011;58785;55.566;38.058;2022-11-15T09:08:42;5.63;;;0.85;;
71125;SDS011;58785;55.566;38.058;2022-11-15T09:11:09;3.77;;;0.70;;
71125;SDS011;58785;55.566;38.058;2022-11-15T09:13:35;4.20;;;0.88;;
71125;SDS011;58785;55.566;38.058;2022-11-15T09:16:04;5.00;;;1.25;;
71125;SDS011;58785;55.566;38.058;2022-11-15T09:18:30;5.57;;;1.17;;
71125;SDS011;58785;55.566;38.058;2022-11-15T09:20:59;7.82;;;0.90;;
71125;SDS011;58785;55.566;38.058;2022-11-15T09:23:27;6.60;;;0.60;;
71125;SDS011;58785;55.566;38.058;2022-11-15T09:25:57;6.15;;;1.00;;
71125;SDS011;58785;55.566;38.058;2022-11-15T09:28:25;4.80;;;0.60;;
71125;SDS011;58785;55.566;38.058;2022-11-15T09:30:50;7.85;;;0.95;;
71125;SDS011;58785;55.566;38.058;2022-11-15T09:33:16;4.93;;;1.07;;
71125;SDS011;58785;55.566;38.058;2022-11-15T09:35:41;5.07;;;1.00;;
71125;SDS011;58785;55.566;38.058;2022-11-15T09:38:07;9.93;;;1.23;;
71125;SDS011;58785;55.566;38.058;2022-11-15T09:40:32;5.23;;;1.20;;
71125;SDS011;58785;55.566;38.058;2022-11-15T09:43:05;7.25;;;1.73;;
71125;SDS011;58785;55.566;38.058;2022-11-15T09:51:17;7.90;;;1.33;;
71125;SDS011;58785;55.566;38.058;2022-11-15T09:56:41;5.90;;;1.15;;
71125;SDS011;58785;55.566;38.058;2022-11-15T10:04:49;6.67;;;1.33;;
71125;SDS011;58785;55.566;38.058;2022-11-15T10:09:53;4.72;;;0.80;;
71125;SDS011;58785;55.566;38.058;2022-11-15T10:12:22;5.57;;;1.23;;
71125;SDS011;58785;55.566;38.058;2022-11-15T10:14:50;5.65;;;1.02;;
71125;SDS011;58785;55.566;38.058;2022-11-15T10:20:03;5.18;;;0.98;;
71125;SDS011;58785;55.566;38.058;2022-11-15T10:22:49;7.85;;;0.88;;
71125;SDS011;58785;55.566;38.058;2022-11-15T10:27:54;8.15;;;1.40;;
71125;SDS011;58785;55.566;38.058;2022-11-15T10:30:23;5.77;;;0.83;;
71125;SDS011;58785;55.566;38.058;2022-11-15T10:32:55;6.28;;;0.93;;
71125;SDS011;58785;55.566;38.058;2022-11-15T10:37:49;5.90;;;1.20;;
71125;SDS011;58785;55.566;38.058;2022-11-15T10:40:18;5.72;;;1.15;;
71125;SDS011;58785;55.566;38.058;2022-11-15T10:42:46;6.60;;;1.30;;
71125;SDS011;58785;55.566;38.058;2022-11-15T10:48:14;6.97;;;1.27;;
71125;SDS011;58785;55.566;38.058;2022-11-15T10:50:46;11.65;;;1.50;;
71125;SDS011;58785;55.566;38.058;2022-11-15T10:53:21;5.55;;;1.17;;
71125;SDS011;58785;55.566;38.058;2022-11-15T10:55:57;6.25;;;1.42;;
71125;SDS011;58785;55.566;38.058;2022-11-15T10:58:41;7.60;;;1.07;;
71125;SDS011;58785;55.566;38.058;2022-11-15T11:01:10;12.23;;;0.98;;
71125;SDS011;58785;55.566;38.058;2022-11-15T11:03:41;8.07;;;1.52;;
71125;SDS011;58785;55.566;38.058;2022-11-15T11:08:34;6.33;;;1.10;;
71125;SDS011;58785;55.566;38.058;2022-11-15T11:11:01;11.10;;;1.00;;
71125;SDS011;58785;55.566;38.058;2022-11-15T11:32:52;8.80;;;1.10;;
71125;SDS011;58785;55.566;38.058;2022-11-15T11:49:19;4.57;;;0.57;;
71125;SDS011;58785;55.566;38.058;2022-11-15T11:54:43;4.07;;;0.68;;
71125;SDS011;58785;55.566;38.058;2022-11-15T11:57:23;4.10;;;0.40;;
71125;SDS011;58785;55.566;38.058;2022-11-15T12:00:03;4.50;;;0.50;;
71125;SDS011;58785;55.566;38.058;2022-11-15T12:02:38;7.30;;;1.33;;
71125;SDS011;58785;55.566;38.058;2022-11-15T12:08:15;4.50;;;0.85;;
71125;SDS011;58785;55.566;38.058;2022-11-15T12:11:10;9.50;;;1.53;;
71125;SDS011;58785;55.566;38.058;2022-11-15T12:13:41;8.75;;;1.75;;
71125;SDS011;58785;55.566;38.058;2022-11-15T12:16:16;3.50;;;0.38;;
71125;SDS011;58785;55.566;38.058;2022-11-15T12:18:50;5.53;;;0.80;;
71125;SDS011;58785;55.566;38.058;2022-11-15T12:24:04;3.03;;;0.40;;
71125;SDS011;58785;55.566;38.058;2022-11-15T12:26:49;3.90;;;0.80;;
71125;SDS011;58785;55.566;38.058;2022-11-15T12:29:42;10.55;;;4.60;;
71125;SDS011;58785;55.566;38.058;2022-11-15T12:32:24;4.78;;;0.82;;
71125;SDS011;58785;55.566;38.058;2022-11-15T12:34:53;7.55;;;0.82;;
71125;SDS011;58785;55.566;38.058;2022-11-15T12:40:04;7.72;;;1.52;;
71125;SDS011;58785;55.566;38.058;2022-11-15T12:45:42;6.05;;;1.60;;
71125;SDS011;58785;55.566;38.058;2022-11-15T12:58:38;7.13;;;2.30;;
71125;SDS011;58785;55.566;38.058;2022-11-15T13:01:09;8.57;;;2.10;;
71125;SDS011;58785;55.566;38.058;2022-11-15T13:03:35;15.97;;;4.50;;
71125;SDS011;58785;55.566;38.058;2022-11-15T13:06:46;22.23;;;6.32;;
71125;SDS011;58785;55.566;38.058;2022-11-15T13:14:54;15.10;;;3.40;;
71125;SDS011;58785;55.566;38.058;2022-11-15T13:19:57;8.25;;;2.35;;
71125;SDS011;58785;55.566;38.058;2022-11-15T13:22:39;5.37;;;1.30;;
71125;SDS011;58785;55.566;38.058;2022-11-15T13:28:02;5.57;;;1.15;;
71125;SDS011;58785;55.566;38.058;2022-11-15T13:30:39;4.18;;;0.80;;
71125;SDS011;58785;55.566;38.058;2022-11-15T13:33:35;7.05;;;1.00;;
71125;SDS011;58785;55.566;38.058;2022-11-15T13:36:06;6.17;;;0.90;;
71125;SDS011;58785;55.566;38.058;2022-11-15T13:38:38;5.22;;;0.88;;
71125;SDS011;58785;55.566;38.058;2022-11-15T13:41:18;7.45;;;1.20;;
71125;SDS011;58785;55.566;38.058;2022-11-15T13:43:46;8.90;;;1.70;;
71125;SDS011;58785;55.566;38.058;2022-11-15T13:46:13;10.68;;;2.10;;
71125;SDS011;58785;55.566;38.058;2022-11-15T13:48:41;11.80;;;2.03;;
71125;SDS011;58785;55.566;38.058;2022-11-15T13:51:50;7.20;;;1.15;;
71125;SDS011;58785;55.566;38.058;2022-11-15T13:54:23;4.68;;;1.00;;
71125;SDS011;58785;55.566;38.058;2022-11-15T13:57:00;8.90;;;1.40;;
71125;SDS011;58785;55.566;38.058;2022-11-15T13:59:44;6.65;;;1.42;;
71125;SDS011;58785;55.566;38.058;2022-11-15T14:02:16;5.83;;;1.10;;
71125;SDS011;58785;55.566;38.058;2022-11-15T14:04:54;8.27;;;1.25;;
71125;SDS011;58785;55.566;38.058;2022-11-15T14:07:24;11.20;;;1.85;;
71125;SDS011;58785;55.566;38.058;2022-11-15T14:09:52;9.45;;;2.30;;
71125;SDS011;58785;55.566;38.058;2022-11-15T14:12:28;6.57;;;1.37;;
71125;SDS011;58785;55.566;38.058;2022-11-15T14:14:57;7.53;;;2.10;;
71125;SDS011;58785;55.566;38.058;2022-11-15T14:19:56;6.53;;;1.48;;
71125;SDS011;58785;55.566;38.058;2022-11-15T14:22:29;10.30;;;2.70;;
71125;SDS011;58785;55.566;38.058;2022-11-15T14:25:07;10.30;;;2.95;;
71125;SDS011;58785;55.566;38.058;2022-11-15T14:27:38;9.40;;;2.40;;
71125;SDS011;58785;55.566;38.058;2022-11-15T14:30:04;6.20;;;1.73;;
71125;SDS011;58785;55.566;38.058;2022-11-15T14:32:41;7.20;;;1.77;;
71125;SDS011;58785;55.566;38.058;2022-11-15T14:35:17;6.37;;;1.17;;
71125;SDS011;58785;55.566;38.058;2022-11-15T14:37:45;5.70;;;1.30;;
71125;SDS011;58785;55.566;38.058;2022-11-15T14:40:13;7.85;;;2.45;;
71125;SDS011;58785;55.566;38.058;2022-11-15T14:42:40;6.30;;;0.93;;
71125;SDS011;58785;55.566;38.058;2022-11-15T14:45:19;3.95;;;1.08;;
71125;SDS011;58785;55.566;38.058;2022-11-15T14:47:46;5.63;;;1.20;;
71125;SDS011;58785;55.566;38.058;2022-11-15T14:50:13;9.60;;;1.30;;
71125;SDS011;58785;55.566;38.058;2022-11-15T14:52:44;6.95;;;1.25;;
71125;SDS011;58785;55.566;38.058;2022-11-15T14:55:20;6.53;;;1.15;;
71125;SDS011;58785;55.566;38.058;2022-11-15T14:57:49;9.87;;;1.70;;
71125;SDS011;58785;55.566;38.058;2022-11-15T15:00:15;6.50;;;1.50;;
71125;SDS011;58785;55.566;38.058;2022-11-15T15:02:41;9.82;;;1.70;;
71125;SDS011;58785;55.566;38.058;2022-11-15T15:05:13;9.32;;;2.13;;
71125;SDS011;58785;55.566;38.058;2022-11-15T15:07:41;7.20;;;1.77;;
71125;SDS011;58785;55.566;38.058;2022-11-15T15:10:07;7.90;;;1.10;;
71125;SDS011;58785;55.566;38.058;2022-11-15T15:12:33;6.00;;;0.90;;
71125;SDS011;58785;55.566;38.058;2022-11-15T15:14:59;5.13;;;1.13;;
71125;SDS011;58785;55.566;38.058;2022-11-15T15:17:24;6.88;;;1.67;;
71125;SDS011;58785;55.566;38.058;2022-11-15T15:19:50;5.80;;;1.30;;
71125;SDS011;58785;55.566;38.058;2022-11-15T15:22:16;11.68;;;2.20;;
71125;SDS011;58785;55.566;38.058;2022-11-15T15:24:44;12.85;;;4.03;;
71125;SDS011;58785;55.566;38.058;2022-11-15T15:27:11;11.40;;;3.97;;
71125;SDS011;58785;55.566;38.058;2022-11-15T15:29:37;10.80;;;3.92;;
71125;SDS011;58785;55.566;38.058;2022-11-15T15:32:03;14.68;;;5.10;;
71125;SDS011;58785;55.566;38.058;2022-11-15T15:34:29;13.43;;;4.32;;
71125;SDS011;58785;55.566;38.058;2022-11-15T15:39:54;8.00;;;1.95;;
71125;SDS011;58785;55.566;38.058;2022-11-15T15:42:21;8.15;;;1.90;;
71125;SDS011;58785;55.566;38.058;2022-11-15T15:44:48;13.03;;;2.20;;
71125;SDS011;58785;55.566;38.058;2022-11-15T15:47:18;5.22;;;1.02;;
71125;SDS011;58785;55.566;38.058;2022-11-15T15:49:46;4.82;;;0.98;;
71125;SDS011;58785;55.566;38.058;2022-11-15T15:52:12;4.28;;;0.55;;
71125;SDS011;58785;55.566;38.058;2022-11-15T15:54:38;5.80;;;1.00;;
71125;SDS011;58785;55.566;38.058;2022-11-15T15:57:05;3.80;;;0.80;;
71125;SDS011;58785;55.566;38.058;2022-11-15T15:59:31;8.77;;;1.60;;
71125;SDS011;58785;55.566;38.058;2022-11-15T16:01:56;8.53;;;0.87;;
71125;SDS011;58785;55.566;38.058;2022-11-15T16:04:22;6.70;;;0.82;;
71125;SDS011;58785;55.566;38.058;2022-11-15T16:06:48;4.97;;;1.10;;
71125;SDS011;58785;55.566;38.058;2022-11-15T16:09:16;4.40;;;1.10;;
71125;SDS011;58785;55.566;38.058;2022-11-15T16:11:46;5.78;;;1.23;;
71125;SDS011;58785;55.566;38.058;2022-11-15T16:14:12;8.65;;;1.50;;
71125;SDS011;58785;55.566;38.058;2022-11-15T16:16:38;6.68;;;1.30;;
71125;SDS011;58785;55.566;38.058;2022-11-15T16:19:04;7.37;;;1.50;;
71125;SDS011;58785;55.566;38.058;2022-11-15T16:21:30;6.68;;;1.52;;
71125;SDS011;58785;55.566;38.058;2022-11-15T16:23:56;7.10;;;1.40;;
71125;SDS011;58785;55.566;38.058;2022-11-15T16:26:23;4.17;;;1.00;;
71125;SDS011;58785;55.566;38.058;2022-11-15T16:28:51;9.00;;;1.85;;
71125;SDS011;58785;55.566;38.058;2022-11-15T16:31:17;6.72;;;1.30;;
71125;SDS011;58785;55.566;38.058;2022-11-15T16:33:45;7.82;;;1.10;;
71125;SDS011;58785;55.566;38.058;2022-11-15T16:36:30;11.50;;;1.80;;
71125;SDS011;58785;55.566;38.058;2022-11-15T16:38:58;6.57;;;1.45;;
71125;SDS011;58785;55.566;38.058;2022-11-15T16:41:24;8.48;;;1.38;;
71125;SDS011;58785;55.566;38.058;2022-11-15T16:43:51;6.70;;;1.30;;
71125;SDS011;58785;55.566;38.058;2022-11-15T16:46:18;5.63;;;0.97;;
71125;SDS011;58785;55.566;38.058;2022-11-15T16:48:46;9.20;;;1.55;;
71125;SDS011;58785;55.566;38.058;2022-11-15T16:51:13;4.65;;;1.02;;
71125;SDS011;58785;55.566;38.058;2022-11-15T16:53:39;5.77;;;1.30;;
71125;SDS011;58785;55.566;38.058;2022-11-15T16:58:51;5.15;;;1.33;;
71125;SDS011;58785;55.566;38.058;2022-11-15T17:01:29;5.28;;;1.27;;
71125;SDS011;58785;55.566;38.058;2022-11-15T17:03:56;7.80;;;1.35;;
71125;SDS011;58785;55.566;38.058;2022-11-15T17:06:22;7.50;;;1.07;;
71125;SDS011;58785;55.566;38.058;2022-11-15T17:08:49;6.85;;;1.50;;
71125;SDS011;58785;55.566;38.058;2022-11-15T17:11:18;4.93;;;0.80;;
71125;SDS011;58785;55.566;38.058;2022-11-15T17:13:45;4.20;;;0.60;;